LFMO

Orange-Caritat (BA 115) Air Base

Airport
ICAO code
LFMO
Summary
ICAO Region
EUR
ICAO Territory
Location

, Provence-Alpes-Cote d'Azur

Serving
Orange
Elevation
197 ft
Coordinates
44° 8' 26" N , 4° 52' 0" E
Metar
LFMO 222030Z AUTO 31013KT 280V340 3900 +RA BR FEW017/// SCT024/// BKN030/// ///CB 12/10 Q1004 BECMG 15010KT 9999 NSW BKN022

Runways

Designator Length Width Surface Rops
14/32 0 0 UNK No/No
15/33 2411 60 CON No/No

Airport map

Aerial View

SKYbrary Partners:

Safety knowledge contributed by: